Terminal Aerodrome Forecast
Issued by NWS

Home | Current Version | Previous Version | Text Only | Print | Product List | Glossary On
Versions: 1 2 3 4 5 6 7 8 9 10 11 12 13 14 15 16
000
FTUS42 KFFC 231138
TAFPDK
TAF
KPDK 231138Z 2312/2412 25004KT P6SM SCT020
     FM231400 29005KT P6SM SCT025 SCT120
     FM231600 31007KT P6SM VCSH BKN045
      TEMPO 2317/2321 3SM TSRA BKN035CB
     FM232300 32006KT P6SM SCT045 SCT120=

USA.gov is the U.S. government's official web portal to all federal, state and local government web resources and services.